KFAT/FAT METAR and TAF weather

Enter ICAO airport designator
Station Type Date Time Source
KFAT METAR 2019/10/21 04:53 UTC NOAA

KFAT 210453Z 29006KT 10SM CLR 18/07 A3009 RMK AO2 SLP185 T01830067


Station Type Date Time Source
KFAT Decoded METAR 2019/10/21 04:53 UTC NOAA

FRESNO AIR TERMINAL, CA, United States (KFAT) 36-47N 119-43W 104M
Oct 21, 2019 - 12:53 AM EDT / 2019.10.21 0453 UTC
Wind: from the WNW (290 degrees) at 7 MPH (6 KT):0
Visibility: 10 mile(s):0
Sky conditions: clear
Temperature: 64.9 F (18.3 C)
Dew Point: 44.1 F (6.7 C)
Relative Humidity: 46%
Pressure (altimeter): 30.09 in. Hg (1018 hPa)
ob: KFAT 210453Z 29006KT 10SM CLR 18/07 A3009 RMK AO2 SLP185 T01830067
cycle: 5

Station Type Date Time Source
KFAT TAF 2019/10/21 06:22 UTC NOAA

TAF KFAT 210520Z 2106/2206 VRB05KT P6SM SKC

Example: see airport list